Map

Track Data

SID SEASON NUMBER BASIN SUBBASIN NAME ISO_TIME NATURE LAT LON WMO_WIND WMO_PRES WMO_AGENCY TRACK_TYPE DIST2LAND LANDFALL IFLAG USA_AGENCY USA_ATCF_ID USA_LAT USA_LON USA_RECORD USA_STATUS USA_WIND USA_PRES USA_SSHS USA_R34_NE USA_R34_SE USA_R34_SW USA_R34_NW USA_R50_NE USA_R50_SE USA_R50_SW USA_R50_NW USA_R64_NE USA_R64_SE USA_R64_SW USA_R64_NW USA_POCI USA_ROCI USA_RMW USA_EYE TOKYO_LAT TOKYO_LON TOKYO_GRADE TOKYO_WIND TOKYO_PRES TOKYO_R50_DIR TOKYO_R50_LONG TOKYO_R50_SHORT TOKYO_R30_DIR TOKYO_R30_LONG TOKYO_R30_SHORT TOKYO_LAND CMA_LAT CMA_LON CMA_CAT CMA_WIND CMA_PRES HKO_LAT HKO_LON HKO_CAT HKO_WIND HKO_PRES NEWDELHI_LAT NEWDELHI_LON NEWDELHI_GRADE NEWDELHI_WIND NEWDELHI_PRES NEWDELHI_CI NEWDELHI_DP NEWDELHI_POCI REUNION_LAT REUNION_LON REUNION_TYPE REUNION_WIND REUNION_PRES REUNION_TNUM REUNION_CI REUNION_RMW REUNION_R34_NE REUNION_R34_SE REUNION_R34_SW REUNION_R34_NW REUNION_R50_NE REUNION_R50_SE REUNION_R50_SW REUNION_R50_NW REUNION_R64_NE REUNION_R64_SE REUNION_R64_SW REUNION_R64_NW BOM_LAT BOM_LON BOM_TYPE BOM_WIND BOM_PRES BOM_TNUM BOM_CI BOM_RMW BOM_R34_NE BOM_R34_SE BOM_R34_SW BOM_R34_NW BOM_R50_NE BOM_R50_SE BOM_R50_SW BOM_R50_NW BOM_R64_NE BOM_R64_SE BOM_R64_SW BOM_R64_NW BOM_ROCI BOM_POCI BOM_EYE BOM_POS_METHOD BOM_PRES_METHOD NADI_LAT NADI_LON NADI_CAT NADI_WIND NADI_PRES WELLINGTON_LAT WELLINGTON_LON WELLINGTON_WIND WELLINGTON_PRES DS824_LAT DS824_LON DS824_STAGE DS824_WIND DS824_PRES TD9636_LAT TD9636_LON TD9636_STAGE TD9636_WIND TD9636_PRES TD9635_LAT TD9635_LON TD9635_WIND TD9635_PRES TD9635_ROCI NEUMANN_LAT NEUMANN_LON NEUMANN_CLASS NEUMANN_WIND NEUMANN_PRES MLC_LAT MLC_LON MLC_CLASS MLC_WIND MLC_PRES USA_GUST BOM_GUST BOM_GUST_PER REUNION_GUST REUNION_GUST_PER USA_SEAHGT USA_SEARAD_NE USA_SEARAD_SE USA_SEARAD_SW USA_SEARAD_NW STORM_SPEED STORM_DIR
1908294N35288 1908 48 NA NA NOT_NAMED 1908-10-19 12:00:00 ET 35.0000 -72.0000 35 hurdat_atl main 328 328 O_____________ hurdat_atl AL101908 35.0000 -72.0000 EX 35 -4 8 150
1908294N35288 1908 48 NA NA NOT_NAMED 1908-10-19 15:00:00 ET 34.6401 -71.7495 main 369 369 P_____________ AL101908 34.6401 -71.7495 EX 35 -4 8 150
1908294N35288 1908 48 NA NA NOT_NAMED 1908-10-19 18:00:00 ET 34.3000 -71.5000 35 hurdat_atl main 399 399 O_____________ hurdat_atl AL101908 34.3000 -71.5000 EX 35 -4 8 147
1908294N35288 1908 48 NA NA NOT_NAMED 1908-10-19 21:00:00 ET 33.9925 -71.2502 main 431 431 P_____________ AL101908 33.9925 -71.2502 EX 35 -4 7 145
1908294N35288 1908 48 NA NA NOT_NAMED 1908-10-20 00:00:00 ET 33.7000 -71.0000 35 hurdat_atl main 472 472 O_____________ hurdat_atl AL101908 33.7000 -71.0000 EX 35 -4 7 146
1908294N35288 1908 48 NA NA NOT_NAMED 1908-10-20 03:00:00 ET 33.3998 -70.7729 main 505 505 P_____________ AL101908 33.3998 -70.7729 EX 35 -4 7 145
1908294N35288 1908 48 NA NA NOT_NAMED 1908-10-20 06:00:00 ET 33.1000 -70.5000 35 hurdat_atl main 547 547 O_____________ hurdat_atl AL101908 33.1000 -70.5000 EX 35 -4 8 138
1908294N35288 1908 48 NA NA NOT_NAMED 1908-10-20 09:00:00 ET 32.8148 -70.1455 main 597 597 P_____________ AL101908 32.8148 -70.1455 EX 35 -4 9 132
1908294N35288 1908 48 NA NA NOT_NAMED 1908-10-20 12:00:00 TS 32.5000 -69.7000 35 hurdat_atl main 647 647 O_____________ hurdat_atl AL101908 32.5000 -69.7000 TS 35 0 11 130
1908294N35288 1908 48 NA NA NOT_NAMED 1908-10-20 15:00:00 TS 32.1298 -69.1879 main 711 711 P_____________ AL101908 32.1298 -69.1879 TS 35 0 12 131
1908294N35288 1908 48 NA NA NOT_NAMED 1908-10-20 18:00:00 TS 31.7000 -68.6000 35 hurdat_atl main 783 783 O_____________ hurdat_atl AL101908 31.7000 -68.6000 TS 35 0 14 131
1908294N35288 1908 48 NA NA NOT_NAMED 1908-10-20 21:00:00 TS 31.2227 -67.9424 main 869 869 P_____________ AL101908 31.2227 -67.9424 TS 35 0 15 132
1908294N35288 1908 48 NA NA NOT_NAMED 1908-10-21 00:00:00 TS 30.7000 -67.3000 35 hurdat_atl main 949 949 O_____________ hurdat_atl AL101908 30.7000 -67.3000 TS 35 0 15 135
1908294N35288 1908 48 NA NA NOT_NAMED 1908-10-21 03:00:00 TS 30.1575 -66.7250 main 1029 1029 P_____________ AL101908 30.1575 -66.7250 TS 35 0 14 142
1908294N35288 1908 48 NA NA NOT_NAMED 1908-10-21 06:00:00 TS 29.6000 -66.3000 35 hurdat_atl main 1101 1101 O_____________ hurdat_atl AL101908 29.6000 -66.3000 TS 35 0 13 149
1908294N35288 1908 48 NA NA NOT_NAMED 1908-10-21 09:00:00 TS 29.0415 -65.9539 main 1119 1073 P_____________ AL101908 29.0415 -65.9539 TS 35 0 11 167
1908294N35288 1908 48 NA NA NOT_NAMED 1908-10-21 12:00:00 TS 28.5000 -66.0000 35 hurdat_atl main 1073 997 O_____________ hurdat_atl AL101908 28.5000 -66.0000 TS 35 0 13 207
1908294N35288 1908 48 NA NA NOT_NAMED 1908-10-21 15:00:00 TS 27.9249 -66.6077 main 989 897 P_____________ AL101908 27.9249 -66.6077 TS 35 0 17 235
1908294N35288 1908 48 NA NA NOT_NAMED 1908-10-21 18:00:00 TS 27.5000 -67.6000 35 hurdat_atl main 891 814 O_____________ hurdat_atl AL101908 27.5000 -67.6000 TS 35 0 20 252
1908294N35288 1908 48 NA NA NOT_NAMED 1908-10-21 21:00:00 TS 27.3154 -68.7054 main 808 763 P_____________ AL101908 27.3154 -68.7054 TS 35 0 20 267
1908294N35288 1908 48 NA NA NOT_NAMED 1908-10-22 00:00:00 TS 27.4000 -69.9000 35 hurdat_atl main 760 748 O_____________ hurdat_atl AL101908 27.4000 -69.9000 TS 35 0 21 281
1908294N35288 1908 48 NA NA NOT_NAMED 1908-10-22 03:00:00 TS 27.7320 -71.0285 main 753 688 P_____________ AL101908 27.7320 -71.0285 TS 35 0 21 292
1908294N35288 1908 48 NA NA NOT_NAMED 1908-10-22 06:00:00 TS 28.2000 -72.1000 35 hurdat_atl main 680 616 O_____________ hurdat_atl AL101908 28.2000 -72.1000 TS 35 0 20 294
1908294N35288 1908 48 NA NA NOT_NAMED 1908-10-22 09:00:00 TS 28.5620 -73.1113 main 623 587 P_____________ AL101908 28.5620 -73.1113 TS 35 0 19 296
1908294N35288 1908 48 NA NA NOT_NAMED 1908-10-22 12:00:00 TS 29.0000 -74.0000 35 hurdat_atl main 588 571 O_____________ hurdat_atl AL101908 29.0000 -74.0000 TS 35 0 18 307
1908294N35288 1908 48 NA NA NOT_NAMED 1908-10-22 15:00:00 TS 29.6267 -74.7525 main 566 470 P_____________ AL101908 29.6267 -74.7525 TS 35 0 18 317
1908294N35288 1908 48 NA NA NOT_NAMED 1908-10-22 18:00:00 TS 30.3000 -75.4000 35 hurdat_atl main 470 393 O_____________ hurdat_atl AL101908 30.3000 -75.4000 TS 35 0 16 319
1908294N35288 1908 48 NA NA NOT_NAMED 1908-10-22 21:00:00 TS 30.8715 -75.9866 main 383 307 P_____________ AL101908 30.8715 -75.9866 TS 35 0 15 317
1908294N35288 1908 48 NA NA NOT_NAMED 1908-10-23 00:00:00 TS 31.4000 -76.6000 35 hurdat_atl main 307 229 O_____________ hurdat_atl AL101908 31.4000 -76.6000 TS 35 0 16 311
1908294N35288 1908 48 NA NA NOT_NAMED 1908-10-23 03:00:00 TS 31.9077 -77.3779 main 222 129 P_____________ AL101908 31.9077 -77.3779 TS 35 0 17 306
1908294N35288 1908 48 NA NA NOT_NAMED 1908-10-23 06:00:00 ET 32.4000 -78.2000 35 hurdat_atl main 129 43 O_____________ hurdat_atl AL101908 32.4000 -78.2000 EX 35 -4 17 307
1908294N35288 1908 48 NA NA NOT_NAMED 1908-10-23 09:00:00 ET 32.9147 -78.9728 main 38 0 P_____________ AL101908 32.9147 -78.9728 EX 35 -4 16 308
1908294N35288 1908 48 NA NA NOT_NAMED 1908-10-23 12:00:00 ET 33.4000 -79.7000 35 hurdat_atl main 0 0 O_____________ hurdat_atl AL101908 33.4000 -79.7000 EX 35 -4 15 308
1908294N35288 1908 48 NA NA NOT_NAMED 1908-10-23 15:00:00 ET 33.8205 -80.3667 main 0 0 P_____________ AL101908 33.8205 -80.3667 EX 32 -4 13 307
1908294N35288 1908 48 NA NA NOT_NAMED 1908-10-23 18:00:00 ET 34.2000 -81.0000 30 hurdat_atl main 0 O_____________ hurdat_atl AL101908 34.2000 -81.0000 EX 30 -4 13 306

About IBTrACS Database

This database is a web-friendly format of International Best Track Archive for Climate Stewardship (IBTrACS), a global best track data archive curated by NOAA dating back to 1842.

Updated: 2021-11-26